createdAt,value
2017-01-26T00:00:20.974Z,0
2017-01-26T00:01:21.650Z,0
2017-01-26T00:02:22.309Z,0
2017-01-26T00:03:22.991Z,0
2017-01-26T00:04:23.670Z,0
2017-01-26T00:05:24.359Z,0
2017-01-26T00:06:25.061Z,0
2017-01-26T00:07:25.733Z,0
2017-01-26T00:08:26.407Z,0
2017-01-26T00:09:27.077Z,0
2017-01-26T00:10:27.771Z,0
2017-01-26T00:11:28.424Z,0
2017-01-26T00:12:29.095Z,0
2017-01-26T00:13:29.769Z,0
2017-01-26T00:14:30.488Z,0
2017-01-26T00:15:31.169Z,0
2017-01-26T00:16:31.841Z,0
2017-01-26T00:17:32.519Z,0
2017-01-26T00:18:33.200Z,0
2017-01-26T00:19:33.881Z,0
2017-01-26T00:20:34.582Z,0
2017-01-26T00:21:35.247Z,0
2017-01-26T00:22:35.932Z,0
2017-01-26T00:23:36.611Z,0
2017-01-26T00:24:37.284Z,0
2017-01-26T00:25:37.971Z,0
2017-01-26T00:26:38.653Z,0
2017-01-26T00:27:39.340Z,0
2017-01-26T00:28:40.006Z,0
2017-01-26T00:29:40.684Z,0
2017-01-26T00:30:41.356Z,0
2017-01-26T00:31:42.027Z,0
2017-01-26T00:32:42.694Z,0
2017-01-26T00:33:43.377Z,0
2017-01-26T00:34:44.084Z,0
2017-01-26T00:35:44.750Z,0
2017-01-26T00:36:45.427Z,0
2017-01-26T00:37:46.104Z,0
2017-01-26T00:38:46.782Z,0
2017-01-26T00:39:47.467Z,0
2017-01-26T00:40:48.138Z,0
2017-01-26T00:41:48.835Z,0
2017-01-26T00:42:49.482Z,0
2017-01-26T00:43:50.192Z,0
2017-01-26T00:44:50.894Z,0
2017-01-26T00:45:51.552Z,0
2017-01-26T00:46:52.246Z,0
2017-01-26T00:47:52.921Z,0
2017-01-26T00:48:53.608Z,0
2017-01-26T00:49:54.293Z,0
2017-01-26T00:50:54.965Z,0
2017-01-26T00:51:55.650Z,0
2017-01-26T00:52:56.316Z,0
2017-01-26T00:53:57.122Z,0
2017-01-26T00:54:57.794Z,0
2017-01-26T00:55:58.466Z,0
2017-01-26T00:56:59.135Z,0
2017-01-26T00:57:59.803Z,0
2017-01-26T00:59:00.487Z,0
2017-01-26T01:00:01.162Z,0
2017-01-26T01:01:01.864Z,0
2017-01-26T01:02:02.571Z,0
2017-01-26T01:03:03.245Z,0
2017-01-26T01:04:03.922Z,0
2017-01-26T01:05:04.597Z,0
2017-01-26T01:06:05.263Z,0
2017-01-26T01:07:05.938Z,0
2017-01-26T01:08:06.631Z,0
2017-01-26T01:09:07.309Z,0
2017-01-26T01:10:08.037Z,0
2017-01-26T01:11:08.708Z,0
2017-01-26T01:12:09.371Z,0
2017-01-26T01:13:10.045Z,0
2017-01-26T01:14:10.717Z,0
2017-01-26T01:15:11.387Z,0
2017-01-26T01:16:12.066Z,0
2017-01-26T01:17:12.729Z,0
2017-01-26T01:18:13.396Z,0
2017-01-26T01:19:14.074Z,0
2017-01-26T01:20:14.742Z,0
2017-01-26T01:21:15.409Z,0
2017-01-26T01:22:16.097Z,0
2017-01-26T01:23:16.861Z,0
2017-01-26T01:24:17.552Z,0
2017-01-26T01:25:18.218Z,0
2017-01-26T01:26:18.887Z,0
2017-01-26T01:27:19.552Z,0
2017-01-26T01:28:20.226Z,0
2017-01-26T01:29:20.943Z,0
2017-01-26T01:30:21.569Z,0
2017-01-26T01:31:22.240Z,0
2017-01-26T01:32:22.919Z,0
2017-01-26T01:33:23.593Z,0
2017-01-26T01:34:24.265Z,0
2017-01-26T01:35:24.946Z,0
2017-01-26T01:36:25.636Z,0
2017-01-26T01:37:26.295Z,0
2017-01-26T01:38:26.967Z,0
2017-01-26T01:39:27.660Z,0
2017-01-26T01:40:28.331Z,0
2017-01-26T01:41:29.008Z,0
2017-01-26T01:42:29.690Z,0
2017-01-26T01:43:30.376Z,0
2017-01-26T01:44:31.041Z,0
2017-01-26T01:45:31.715Z,0
2017-01-26T01:46:32.394Z,0
2017-01-26T01:47:33.116Z,0
2017-01-26T01:48:33.793Z,0
2017-01-26T01:49:34.462Z,0
2017-01-26T01:50:35.143Z,0
2017-01-26T01:51:35.829Z,0
2017-01-26T01:52:36.522Z,0
2017-01-26T01:53:37.188Z,0
2017-01-26T01:54:37.865Z,0
2017-01-26T01:55:38.577Z,0
2017-01-26T01:56:39.271Z,0
2017-01-26T01:57:39.953Z,0
2017-01-26T01:58:40.621Z,0
2017-01-26T01:59:41.295Z,0
2017-01-26T02:00:41.976Z,0
2017-01-26T02:01:42.711Z,0
2017-01-26T02:02:43.390Z,0
2017-01-26T02:03:44.077Z,0
2017-01-26T02:04:44.754Z,0
2017-01-26T02:05:45.442Z,0
2017-01-26T02:06:46.123Z,0
2017-01-26T02:07:46.825Z,0
2017-01-26T02:08:47.509Z,0
2017-01-26T02:09:48.205Z,0
2017-01-26T02:10:48.885Z,0
2017-01-26T02:11:49.580Z,0
2017-01-26T02:12:50.267Z,0
2017-01-26T02:13:50.944Z,0
2017-01-26T02:14:51.614Z,0
2017-01-26T02:15:52.294Z,0
2017-01-26T02:16:52.974Z,0
2017-01-26T02:17:53.653Z,0
2017-01-26T02:18:54.331Z,0
2017-01-26T02:19:55.001Z,0
2017-01-26T02:20:55.674Z,0
2017-01-26T02:21:56.368Z,0
2017-01-26T02:22:57.052Z,0
2017-01-26T02:23:57.710Z,0
2017-01-26T02:24:58.394Z,0
2017-01-26T02:25:59.066Z,0
2017-01-26T02:26:59.744Z,0
2017-01-26T02:28:00.414Z,0
2017-01-26T02:29:01.089Z,0
2017-01-26T02:30:01.762Z,0
2017-01-26T02:31:02.425Z,0
2017-01-26T02:32:03.101Z,0
2017-01-26T02:33:03.776Z,0
2017-01-26T02:34:04.450Z,0
2017-01-26T02:35:05.122Z,0
2017-01-26T02:36:05.800Z,0
2017-01-26T02:37:06.474Z,0
2017-01-26T02:38:07.146Z,0
2017-01-26T02:39:07.808Z,0
2017-01-26T02:40:08.479Z,0
2017-01-26T02:41:09.190Z,0
2017-01-26T02:42:09.875Z,0
2017-01-26T02:43:10.554Z,0
2017-01-26T02:44:11.233Z,0
2017-01-26T02:45:11.903Z,0
2017-01-26T02:46:12.574Z,0
2017-01-26T02:47:13.244Z,0
2017-01-26T02:48:13.917Z,0
2017-01-26T02:49:14.593Z,0
2017-01-26T02:50:15.264Z,0
2017-01-26T02:51:15.943Z,0
2017-01-26T02:52:16.609Z,0
2017-01-26T02:53:17.293Z,0
2017-01-26T02:54:17.961Z,0
2017-01-26T02:55:18.629Z,0
2017-01-26T02:56:19.309Z,0
2017-01-26T02:57:19.975Z,0
2017-01-26T02:58:20.649Z,0
2017-01-26T02:59:21.326Z,0
2017-01-26T03:00:21.989Z,0
2017-01-26T03:01:22.669Z,0
2017-01-26T03:02:23.451Z,0
2017-01-26T03:03:24.180Z,0
2017-01-26T03:04:24.875Z,0
2017-01-26T03:05:25.647Z,0
2017-01-26T03:06:26.359Z,0
2017-01-26T03:07:27.056Z,0
2017-01-26T03:08:27.740Z,0
2017-01-26T03:09:28.560Z,0
2017-01-26T03:10:29.269Z,0
2017-01-26T03:11:30.006Z,0
2017-01-26T03:12:30.691Z,0
2017-01-26T03:13:31.394Z,0
2017-01-26T03:14:32.067Z,0
2017-01-26T03:15:32.778Z,0
2017-01-26T03:16:33.459Z,0
2017-01-26T03:17:34.151Z,0
2017-01-26T03:18:35.219Z,0
2017-01-26T03:19:35.915Z,0
2017-01-26T03:20:36.649Z,0
2017-01-26T03:21:37.311Z,0
2017-01-26T03:22:37.996Z,0
2017-01-26T03:23:38.806Z,0
2017-01-26T03:24:39.545Z,0
2017-01-26T03:25:40.227Z,0
2017-01-26T03:26:41.063Z,0
2017-01-26T03:27:41.764Z,0
2017-01-26T03:28:42.516Z,0
2017-01-26T03:29:43.293Z,0
2017-01-26T03:30:44.017Z,0
2017-01-26T03:31:44.726Z,0
2017-01-26T03:32:45.400Z,0
2017-01-26T03:33:46.080Z,0
2017-01-26T03:34:46.964Z,0
2017-01-26T03:35:47.701Z,0
2017-01-26T03:36:48.411Z,0
2017-01-26T03:37:49.096Z,0
2017-01-26T03:38:49.865Z,0
2017-01-26T03:39:50.604Z,0
2017-01-26T03:40:51.301Z,0
2017-01-26T03:41:51.997Z,0
2017-01-26T03:42:52.681Z,0
2017-01-26T03:43:53.385Z,0
2017-01-26T03:44:54.048Z,0
2017-01-26T03:45:54.784Z,0
2017-01-26T03:46:55.456Z,0
2017-01-26T03:47:56.466Z,0
2017-01-26T03:48:57.115Z,0
2017-01-26T03:49:57.883Z,0
2017-01-26T03:50:58.533Z,0
2017-01-26T03:51:59.204Z,0
2017-01-26T03:52:59.921Z,0
2017-01-26T03:54:00.598Z,0
2017-01-26T03:55:01.268Z,0
2017-01-26T03:56:01.946Z,0
2017-01-26T03:57:02.646Z,0
2017-01-26T03:58:03.342Z,0
2017-01-26T03:59:04.059Z,0
2017-01-26T04:00:04.703Z,0
2017-01-26T04:01:05.396Z,0
2017-01-26T04:02:06.077Z,0
2017-01-26T04:03:06.756Z,0
2017-01-26T04:04:07.436Z,0
2017-01-26T04:05:08.148Z,0
2017-01-26T04:06:08.828Z,0
2017-01-26T04:07:09.509Z,0
2017-01-26T04:08:10.177Z,0
2017-01-26T04:09:10.853Z,0
2017-01-26T04:10:11.529Z,0
2017-01-26T04:11:12.214Z,0
2017-01-26T04:12:12.897Z,0
2017-01-26T04:13:13.590Z,0
2017-01-26T04:14:14.291Z,0
2017-01-26T04:15:14.988Z,0
2017-01-26T04:16:15.684Z,0
2017-01-26T04:17:16.352Z,0
2017-01-26T04:18:17.035Z,0
2017-01-26T04:19:17.729Z,0
2017-01-26T04:20:18.404Z,0
2017-01-26T04:21:19.075Z,0
2017-01-26T04:22:19.776Z,0
2017-01-26T04:23:20.477Z,0
2017-01-26T04:24:21.172Z,0
2017-01-26T04:25:21.872Z,0
2017-01-26T04:26:22.553Z,0
2017-01-26T04:27:23.220Z,0
2017-01-26T04:28:23.899Z,0
2017-01-26T04:29:24.582Z,0
2017-01-26T04:30:25.240Z,0
2017-01-26T04:31:25.918Z,0
2017-01-26T04:32:26.590Z,0
2017-01-26T04:33:27.358Z,0
2017-01-26T04:34:28.030Z,0
2017-01-26T04:35:28.709Z,0
2017-01-26T04:36:29.416Z,0
2017-01-26T04:37:30.087Z,0
2017-01-26T04:38:30.763Z,0
2017-01-26T04:39:31.455Z,0
2017-01-26T04:40:32.120Z,0
2017-01-26T04:41:32.832Z,0
2017-01-26T04:42:33.522Z,0
2017-01-26T04:43:34.196Z,0
2017-01-26T04:44:34.874Z,0
2017-01-26T04:45:35.604Z,0
2017-01-26T04:46:36.297Z,0
2017-01-26T04:47:36.987Z,0
2017-01-26T04:48:37.657Z,0
2017-01-26T04:49:38.341Z,0
2017-01-26T04:50:38.998Z,0
2017-01-26T04:51:39.674Z,0
2017-01-26T04:52:40.378Z,0
2017-01-26T04:53:41.060Z,0
2017-01-26T04:54:41.771Z,0
2017-01-26T04:55:42.462Z,0
2017-01-26T04:56:43.130Z,0
2017-01-26T04:57:43.822Z,0
2017-01-26T04:58:44.497Z,0
2017-01-26T04:59:45.164Z,0
2017-01-26T05:00:45.834Z,0
2017-01-26T05:01:46.643Z,0
2017-01-26T05:02:47.475Z,0
2017-01-26T05:03:48.153Z,0
2017-01-26T05:04:48.828Z,0
2017-01-26T05:05:49.552Z,0
2017-01-26T05:06:50.224Z,0
2017-01-26T05:07:50.895Z,0
2017-01-26T05:08:51.565Z,0
2017-01-26T05:09:52.242Z,0
2017-01-26T05:10:52.915Z,0
2017-01-26T05:11:53.584Z,0
2017-01-26T05:12:54.256Z,0
2017-01-26T05:13:54.974Z,0
2017-01-26T05:14:55.656Z,0
2017-01-26T05:15:56.324Z,0
2017-01-26T05:16:57.011Z,0
2017-01-26T05:17:57.683Z,0
2017-01-26T05:18:58.353Z,0
2017-01-26T05:19:59.119Z,0
2017-01-26T05:20:59.842Z,0
2017-01-26T05:22:00.518Z,0
2017-01-26T05:23:01.205Z,0
2017-01-26T05:24:01.892Z,0
2017-01-26T05:25:02.583Z,0
2017-01-26T05:26:03.271Z,0
2017-01-26T05:27:03.941Z,0
2017-01-26T05:28:04.621Z,0
2017-01-26T05:29:05.358Z,0
2017-01-26T05:30:06.041Z,0
2017-01-26T05:31:06.716Z,0
2017-01-26T05:32:07.392Z,0
2017-01-26T05:33:08.054Z,0
2017-01-26T05:34:08.723Z,0
2017-01-26T05:35:09.400Z,0
2017-01-26T05:36:10.069Z,0
2017-01-26T05:37:10.766Z,0
2017-01-26T05:38:11.441Z,0
2017-01-26T05:39:12.190Z,0
2017-01-26T05:40:12.868Z,0
2017-01-26T05:41:13.560Z,0
2017-01-26T05:42:14.276Z,0
2017-01-26T05:43:14.956Z,0
2017-01-26T05:44:15.624Z,0
2017-01-26T05:45:16.310Z,0
2017-01-26T05:46:17.096Z,0
2017-01-26T05:47:17.778Z,0
2017-01-26T05:48:18.468Z,0
2017-01-26T05:49:19.141Z,0
2017-01-26T05:50:19.808Z,0
2017-01-26T05:51:20.493Z,0
2017-01-26T05:52:21.187Z,0
2017-01-26T05:53:22.268Z,0
2017-01-26T05:54:22.948Z,0
2017-01-26T05:55:23.615Z,0
2017-01-26T05:56:24.288Z,0
2017-01-26T05:57:24.984Z,0
2017-01-26T05:58:25.685Z,0
2017-01-26T05:59:26.550Z,0
2017-01-26T06:00:27.247Z,0
2017-01-26T06:01:27.967Z,0
2017-01-26T06:02:28.707Z,0
2017-01-26T06:03:29.612Z,0
2017-01-26T06:04:30.106Z,0
2017-01-26T06:05:30.790Z,0
2017-01-26T06:06:31.466Z,0
2017-01-26T06:07:32.189Z,0
2017-01-26T06:08:32.889Z,0
2017-01-26T06:09:33.570Z,0
2017-01-26T06:10:34.251Z,0
2017-01-26T06:11:34.974Z,0
2017-01-26T06:12:35.809Z,0
2017-01-26T06:13:36.508Z,0
2017-01-26T06:14:37.187Z,0
2017-01-26T06:15:37.869Z,0
2017-01-26T06:16:39.697Z,0
2017-01-26T06:17:40.529Z,0
2017-01-26T06:18:41.951Z,0
2017-01-26T06:19:42.651Z,0
2017-01-26T06:20:43.784Z,0
2017-01-26T06:21:44.497Z,0
2017-01-26T06:22:45.170Z,0
2017-01-26T06:23:46.052Z,0
2017-01-26T06:24:46.848Z,0
2017-01-26T06:25:47.746Z,0
2017-01-26T06:26:48.425Z,0
2017-01-26T06:27:49.121Z,0
2017-01-26T06:28:49.871Z,0
2017-01-26T06:29:50.517Z,0
2017-01-26T06:30:51.196Z,0
2017-01-26T06:31:51.868Z,0
2017-01-26T06:32:52.540Z,0
2017-01-26T06:33:53.218Z,0
2017-01-26T06:34:53.897Z,0
2017-01-26T06:35:54.575Z,0
2017-01-26T06:36:55.247Z,0
2017-01-26T06:37:56.113Z,0
2017-01-26T06:38:56.675Z,0
2017-01-26T06:39:57.390Z,4
2017-01-26T06:40:58.080Z,4
2017-01-26T06:41:58.764Z,4
2017-01-26T06:42:59.479Z,0
2017-01-26T06:44:00.267Z,0
2017-01-26T06:45:00.938Z,4
2017-01-26T06:46:01.629Z,4
2017-01-26T06:47:02.330Z,4
2017-01-26T06:48:03.055Z,4
2017-01-26T06:49:03.721Z,8
2017-01-26T06:50:04.398Z,4
2017-01-26T06:51:05.181Z,8
2017-01-26T06:52:05.892Z,8
2017-01-26T06:53:06.559Z,8
2017-01-26T06:54:07.392Z,8
2017-01-26T06:55:08.064Z,12
2017-01-26T06:56:08.742Z,16
2017-01-26T06:57:09.405Z,24
2017-01-26T06:58:10.106Z,28
2017-01-26T06:59:10.856Z,32
2017-01-26T07:00:11.528Z,36
2017-01-26T07:01:12.196Z,36
2017-01-26T07:02:12.868Z,44
2017-01-26T07:03:13.551Z,48
2017-01-26T07:04:14.234Z,56
2017-01-26T07:05:14.911Z,56
2017-01-26T07:06:15.622Z,60
2017-01-26T07:07:16.294Z,72
2017-01-26T07:08:16.973Z,88
2017-01-26T07:09:17.647Z,88
2017-01-26T07:10:18.329Z,80
2017-01-26T07:11:19.012Z,84
2017-01-26T07:12:19.737Z,88
2017-01-26T07:13:20.458Z,96
2017-01-26T07:14:21.137Z,120
2017-01-26T07:15:21.820Z,128
2017-01-26T07:16:22.494Z,136
2017-01-26T07:17:23.177Z,132
2017-01-26T07:18:23.869Z,144
2017-01-26T07:19:24.544Z,148
2017-01-26T07:20:25.215Z,156
2017-01-26T07:21:25.894Z,184
2017-01-26T07:22:26.557Z,196
2017-01-26T07:23:27.238Z,216
2017-01-26T07:24:27.925Z,236
2017-01-26T07:25:28.602Z,264
2017-01-26T07:26:29.325Z,300
2017-01-26T07:27:30.008Z,332
2017-01-26T07:28:30.677Z,344
2017-01-26T07:29:31.359Z,328
2017-01-26T07:30:32.029Z,324
2017-01-26T07:31:32.757Z,348
2017-01-26T07:32:33.426Z,356
2017-01-26T07:33:34.093Z,352
2017-01-26T07:34:34.812Z,320
2017-01-26T07:35:35.498Z,344
2017-01-26T07:36:36.166Z,408
2017-01-26T07:37:36.842Z,436
2017-01-26T07:38:37.558Z,472
2017-01-26T07:39:38.234Z,472
2017-01-26T07:40:39.006Z,456
2017-01-26T07:41:39.683Z,412
2017-01-26T07:42:40.347Z,432
2017-01-26T07:43:41.048Z,448
2017-01-26T07:44:41.742Z,468
2017-01-26T07:45:42.422Z,480
2017-01-26T07:46:43.095Z,532
2017-01-26T07:47:43.763Z,496
2017-01-26T07:48:44.436Z,516
2017-01-26T07:49:45.107Z,516
2017-01-26T07:50:45.784Z,556
2017-01-26T07:51:46.460Z,732
2017-01-26T07:52:47.127Z,788
2017-01-26T07:53:47.797Z,804
2017-01-26T07:54:48.475Z,716
2017-01-26T07:55:49.255Z,636
2017-01-26T07:56:49.871Z,896
2017-01-26T07:57:50.543Z,904
2017-01-26T07:58:51.225Z,880
2017-01-26T07:59:51.910Z,892
2017-01-26T08:00:52.579Z,940
2017-01-26T08:01:53.243Z,908
2017-01-26T08:02:53.909Z,892
2017-01-26T08:03:54.589Z,952
2017-01-26T08:04:55.282Z,1020
2017-01-26T08:05:55.951Z,944
2017-01-26T08:06:56.627Z,948
2017-01-26T08:07:57.317Z,1020
2017-01-26T08:08:57.992Z,1036
2017-01-26T08:09:58.668Z,1016
2017-01-26T08:10:59.334Z,1120
2017-01-26T08:12:00.023Z,1384
2017-01-26T08:13:00.685Z,1184
2017-01-26T08:14:01.362Z,1152
2017-01-26T08:15:02.092Z,1364
2017-01-26T08:16:02.786Z,1268
2017-01-26T08:17:03.482Z,1112
2017-01-26T08:18:04.151Z,1284
2017-01-26T08:19:04.817Z,1312
2017-01-26T08:20:05.493Z,1164
2017-01-26T08:21:06.172Z,1236
2017-01-26T08:22:06.867Z,1332
2017-01-26T08:23:07.557Z,1424
2017-01-26T08:24:08.259Z,1644
2017-01-26T08:25:08.930Z,1860
2017-01-26T08:26:09.602Z,1612
2017-01-26T08:27:10.308Z,1764
2017-01-26T08:28:11.029Z,1896
2017-01-26T08:29:11.727Z,1748
2017-01-26T08:30:12.364Z,1776
2017-01-26T08:31:13.039Z,2284
2017-01-26T08:32:13.706Z,1976
2017-01-26T08:33:14.415Z,2176
2017-01-26T08:34:15.080Z,2348
2017-01-26T08:35:15.759Z,2472
2017-01-26T08:36:16.436Z,3412
2017-01-26T08:37:17.107Z,2808
2017-01-26T08:38:17.771Z,2684
2017-01-26T08:39:18.445Z,2668
2017-01-26T08:40:19.187Z,2632
2017-01-26T08:41:19.808Z,3080
2017-01-26T08:42:20.488Z,2728
2017-01-26T08:43:21.178Z,2284
2017-01-26T08:44:21.865Z,2404
2017-01-26T08:45:22.549Z,2632
2017-01-26T08:46:23.246Z,2532
2017-01-26T08:47:23.928Z,2616
2017-01-26T08:48:24.595Z,2736
2017-01-26T08:49:25.270Z,2564
2017-01-26T08:50:25.948Z,2436
2017-01-26T08:51:26.664Z,2672
2017-01-26T08:52:27.381Z,2804
2017-01-26T08:53:28.076Z,2680
2017-01-26T08:54:28.748Z,2580
2017-01-26T08:55:29.425Z,2552
2017-01-26T08:56:30.124Z,3088
2017-01-26T08:57:30.840Z,2900
2017-01-26T08:58:31.506Z,2912
2017-01-26T08:59:32.190Z,2524
2017-01-26T09:00:32.856Z,3060
2017-01-26T09:01:33.523Z,3644
2017-01-26T09:02:34.217Z,3544
2017-01-26T09:03:34.900Z,2684
2017-01-26T09:04:35.563Z,2260
2017-01-26T09:05:36.242Z,2428
2017-01-26T09:06:36.925Z,2280
2017-01-26T09:07:37.593Z,1872
2017-01-26T09:08:38.267Z,2048
2017-01-26T09:09:38.955Z,2444
2017-01-26T09:10:39.643Z,2252
2017-01-26T09:11:40.346Z,2228
2017-01-26T09:12:41.029Z,2148
2017-01-26T09:13:41.715Z,2252
2017-01-26T09:14:42.392Z,2588
2017-01-26T09:15:43.091Z,2424
2017-01-26T09:16:43.762Z,2500
2017-01-26T09:17:44.434Z,2384
2017-01-26T09:18:45.101Z,2644
2017-01-26T09:19:45.852Z,2420
2017-01-26T09:20:46.524Z,2792
2017-01-26T09:21:47.219Z,3228
2017-01-26T09:22:47.901Z,2896
2017-01-26T09:23:48.585Z,3316
2017-01-26T09:24:49.297Z,3064
2017-01-26T09:25:49.962Z,3648
2017-01-26T09:26:50.643Z,3716
2017-01-26T09:27:51.333Z,4580
2017-01-26T09:28:52.004Z,3900
2017-01-26T09:29:52.729Z,3900
2017-01-26T09:30:53.631Z,4588
2017-01-26T09:31:54.422Z,4596
2017-01-26T09:32:55.078Z,4640
2017-01-26T09:33:55.761Z,5480
2017-01-26T09:34:56.481Z,4588
2017-01-26T09:35:57.289Z,4640
2017-01-26T09:36:57.980Z,4512
2017-01-26T09:38:02.393Z,4908
2017-01-26T09:39:03.191Z,4468
2017-01-26T09:40:04.483Z,5576
2017-01-26T09:41:09.767Z,5964
2017-01-26T09:42:10.775Z,5548
2017-01-26T09:43:11.267Z,6192
2017-01-26T09:44:11.958Z,5704
2017-01-26T09:45:12.635Z,6116
2017-01-26T09:46:13.317Z,5956
2017-01-26T09:47:14.030Z,6376
2017-01-26T09:48:14.758Z,7872
2017-01-26T09:49:17.889Z,7496
2017-01-26T09:50:18.274Z,6832
2017-01-26T09:51:18.975Z,6816
2017-01-26T09:52:19.665Z,5840
2017-01-26T09:53:20.374Z,6176
2017-01-26T09:54:21.066Z,6540
2017-01-26T09:55:21.762Z,6772
2017-01-26T09:56:22.590Z,6692
2017-01-26T09:57:23.264Z,6004
2017-01-26T09:58:23.943Z,6608
2017-01-26T09:59:24.837Z,6064
2017-01-26T10:00:25.336Z,5684
2017-01-26T10:01:26.037Z,5812
2017-01-26T10:02:26.727Z,5348
2017-01-26T10:03:27.423Z,4864
2017-01-26T10:04:28.113Z,4972
2017-01-26T10:05:28.801Z,5000
2017-01-26T10:06:29.465Z,4756
2017-01-26T10:07:30.145Z,5076
2017-01-26T10:08:31.028Z,5104
2017-01-26T10:09:31.709Z,5004
2017-01-26T10:10:32.388Z,4800
2017-01-26T10:11:33.070Z,4904
2017-01-26T10:12:33.773Z,5016
2017-01-26T10:13:34.431Z,4776
2017-01-26T10:14:35.107Z,4788
2017-01-26T10:15:35.784Z,4744
2017-01-26T10:16:36.462Z,4844
2017-01-26T10:17:37.160Z,4876
2017-01-26T10:18:37.861Z,4760
2017-01-26T10:19:38.544Z,4300
2017-01-26T10:20:39.393Z,4472
2017-01-26T10:21:39.968Z,4468
2017-01-26T10:22:40.645Z,4284
2017-01-26T10:23:41.323Z,4472
2017-01-26T10:24:42.107Z,4380
2017-01-26T10:25:42.793Z,4452
2017-01-26T10:26:43.476Z,4324
2017-01-26T10:27:44.179Z,4340
2017-01-26T10:28:44.859Z,4296
2017-01-26T10:29:45.630Z,3920
2017-01-26T10:30:46.292Z,4324
2017-01-26T10:31:46.961Z,4212
2017-01-26T10:32:47.651Z,4096
2017-01-26T10:33:48.347Z,4156
2017-01-26T10:34:49.031Z,4304
2017-01-26T10:35:49.721Z,4120
2017-01-26T10:36:50.395Z,4228
2017-01-26T10:37:51.069Z,4192
2017-01-26T10:38:51.728Z,4188
2017-01-26T10:39:52.439Z,4352
2017-01-26T10:40:53.106Z,4536
2017-01-26T10:41:53.962Z,4912
2017-01-26T10:42:54.685Z,5200
2017-01-26T10:43:55.362Z,5452
2017-01-26T10:44:56.135Z,4800
2017-01-26T10:45:56.849Z,4332
2017-01-26T10:46:57.575Z,5180
2017-01-26T10:47:58.284Z,5696
2017-01-26T10:48:58.944Z,5224
2017-01-26T10:49:59.646Z,5160
2017-01-26T10:51:00.329Z,5184
2017-01-26T10:52:01.018Z,5576
2017-01-26T10:53:01.755Z,5344
2017-01-26T10:54:02.442Z,5556
2017-01-26T10:55:03.140Z,7136
2017-01-26T10:56:03.880Z,7468
2017-01-26T10:57:04.609Z,6168
2017-01-26T10:58:05.290Z,5812
2017-01-26T10:59:05.958Z,5664
2017-01-26T11:00:06.639Z,6908
2017-01-26T11:01:07.343Z,6580
2017-01-26T11:02:08.022Z,6332
2017-01-26T11:03:08.747Z,5872
2017-01-26T11:04:09.428Z,5492
2017-01-26T11:05:10.206Z,6400
2017-01-26T11:06:10.792Z,7116
2017-01-26T11:07:11.464Z,6516
2017-01-26T11:08:12.164Z,6444
2017-01-26T11:09:12.842Z,7324
2017-01-26T11:10:13.537Z,7332
2017-01-26T11:11:14.220Z,6780
2017-01-26T11:12:14.941Z,6972
2017-01-26T11:13:15.628Z,7836
2017-01-26T11:14:16.395Z,7688
2017-01-26T11:15:17.074Z,7672
2017-01-26T11:16:17.754Z,7576
2017-01-26T11:17:18.444Z,7208
2017-01-26T11:18:19.148Z,7152
2017-01-26T11:19:19.851Z,7940
2017-01-26T11:20:20.529Z,6524
2017-01-26T11:21:21.236Z,6656
2017-01-26T11:22:21.918Z,6540
2017-01-26T11:23:22.683Z,6412
2017-01-26T11:24:23.408Z,6664
2017-01-26T11:25:24.066Z,6444
2017-01-26T11:26:24.856Z,6592
2017-01-26T11:27:25.706Z,6952
2017-01-26T11:28:26.424Z,6572
2017-01-26T11:29:27.157Z,6796
2017-01-26T11:30:27.862Z,6856
2017-01-26T11:31:28.569Z,6092
2017-01-26T11:32:29.247Z,5156
2017-01-26T11:33:29.933Z,5156
2017-01-26T11:34:30.631Z,4152
2017-01-26T11:35:31.325Z,4340
2017-01-26T11:36:32.174Z,4628
2017-01-26T11:37:32.881Z,4860
2017-01-26T11:38:46.211Z,4520
2017-01-26T11:39:34.324Z,4380
2017-01-26T11:40:34.989Z,4636
2017-01-26T11:41:35.670Z,5616
2017-01-26T11:42:36.415Z,5292
2017-01-26T11:43:37.156Z,4064
2017-01-26T11:44:38.330Z,4308
2017-01-26T11:45:39.030Z,4636
2017-01-26T11:46:39.716Z,4784
2017-01-26T11:47:40.409Z,4936
2017-01-26T11:48:41.087Z,5316
2017-01-26T11:49:41.764Z,4756
2017-01-26T11:50:42.459Z,4472
2017-01-26T11:51:43.139Z,4232
2017-01-26T11:52:44.617Z,4732
2017-01-26T11:53:45.359Z,4772
2017-01-26T11:54:46.068Z,4852
2017-01-26T11:55:46.890Z,4864
2017-01-26T11:56:47.544Z,4604
2017-01-26T11:57:48.421Z,5160
2017-01-26T11:58:49.034Z,6588
2017-01-26T11:59:49.705Z,7168
2017-01-26T12:00:50.381Z,6700
2017-01-26T12:01:51.061Z,7236
2017-01-26T12:02:52.062Z,7368
2017-01-26T12:03:52.743Z,6588
2017-01-26T12:04:53.558Z,6708
2017-01-26T12:05:55.002Z,6504
2017-01-26T12:06:55.695Z,4664
2017-01-26T12:07:56.377Z,3972
2017-01-26T12:08:57.067Z,3672
2017-01-26T12:09:57.749Z,3508
2017-01-26T12:10:58.645Z,3724
2017-01-26T12:11:59.151Z,3648
2017-01-26T12:12:59.845Z,3504
2017-01-26T12:14:00.523Z,3724
2017-01-26T12:15:01.244Z,4216
2017-01-26T12:16:02.049Z,4788
2017-01-26T12:17:02.691Z,5068
2017-01-26T12:18:03.406Z,5064
2017-01-26T12:19:04.084Z,5024
2017-01-26T12:20:04.755Z,5572
2017-01-26T12:21:05.432Z,5992
2017-01-26T12:22:06.154Z,6300
2017-01-26T12:23:06.833Z,5732
2017-01-26T12:24:07.507Z,5224
2017-01-26T12:25:08.214Z,5568
2017-01-26T12:26:08.897Z,6028
2017-01-26T12:27:09.566Z,6424
2017-01-26T12:28:10.263Z,6548
2017-01-26T12:29:10.962Z,5740
2017-01-26T12:30:11.700Z,4900
2017-01-26T12:31:12.359Z,3968
2017-01-26T12:32:13.036Z,3416
2017-01-26T12:33:13.724Z,3312
2017-01-26T12:34:14.435Z,3296
2017-01-26T12:35:15.129Z,3304
2017-01-26T12:36:15.825Z,3192
2017-01-26T12:37:16.516Z,3156
2017-01-26T12:38:17.231Z,3144
2017-01-26T12:39:17.919Z,3124
2017-01-26T12:40:18.635Z,3120
2017-01-26T12:41:19.344Z,3100
2017-01-26T12:42:20.014Z,3112
2017-01-26T12:43:20.789Z,3124
2017-01-26T12:44:21.471Z,3120
2017-01-26T12:45:22.140Z,3128
2017-01-26T12:46:22.834Z,3128
2017-01-26T12:47:23.619Z,3112
2017-01-26T12:48:24.638Z,3128
2017-01-26T12:49:25.372Z,3128
2017-01-26T12:50:26.115Z,3156
2017-01-26T12:51:26.827Z,3164
2017-01-26T12:52:27.516Z,3164
2017-01-26T12:53:28.328Z,3144
2017-01-26T12:54:29.090Z,3164
2017-01-26T12:55:29.820Z,3144
2017-01-26T12:56:30.541Z,3116
2017-01-26T12:57:31.248Z,3104
2017-01-26T12:58:31.988Z,3096
2017-01-26T12:59:32.744Z,3072
2017-01-26T13:00:33.482Z,3084
2017-01-26T13:01:34.282Z,3072
2017-01-26T13:02:35.176Z,3108
2017-01-26T13:03:35.911Z,3096
2017-01-26T13:04:36.613Z,3128
2017-01-26T13:05:37.307Z,3140
2017-01-26T13:06:38.026Z,3124
2017-01-26T13:07:38.736Z,3080
2017-01-26T13:08:39.418Z,3136
2017-01-26T13:09:40.108Z,3144
2017-01-26T13:10:40.966Z,3140
2017-01-26T13:11:41.784Z,3140
2017-01-26T13:12:42.550Z,3152
2017-01-26T13:13:43.315Z,3172
2017-01-26T13:14:44.039Z,3172
2017-01-26T13:15:44.899Z,3164
2017-01-26T13:16:45.597Z,3148
2017-01-26T13:17:46.291Z,3156
2017-01-26T13:18:47.004Z,3148
2017-01-26T13:19:47.707Z,3152
2017-01-26T13:20:48.370Z,3164
2017-01-26T13:21:49.056Z,3148
2017-01-26T13:22:49.740Z,3144
2017-01-26T13:23:50.461Z,3148
2017-01-26T13:24:51.154Z,3148
2017-01-26T13:25:51.848Z,3128
2017-01-26T13:27:12.417Z,3112
2017-01-26T13:28:13.108Z,3112
2017-01-26T13:29:13.787Z,3096
2017-01-26T13:30:14.479Z,3088
2017-01-26T13:31:15.153Z,3088
2017-01-26T13:32:15.828Z,3076
2017-01-26T13:33:16.547Z,3084
2017-01-26T13:34:17.227Z,3084
2017-01-26T13:35:17.912Z,3080
2017-01-26T13:36:18.603Z,3084
2017-01-26T13:37:19.319Z,3080
2017-01-26T13:38:20.009Z,3064
2017-01-26T13:39:20.731Z,3060
2017-01-26T13:40:21.415Z,3060
2017-01-26T13:41:22.110Z,3076
2017-01-26T13:42:22.778Z,3088
2017-01-26T13:43:23.603Z,3096
2017-01-26T13:44:24.333Z,3104
2017-01-26T13:45:25.026Z,3116
2017-01-26T13:46:25.735Z,3124
2017-01-26T13:47:26.416Z,3140
2017-01-26T13:48:27.136Z,3148
2017-01-26T13:49:27.868Z,3152
2017-01-26T13:50:28.702Z,3152
2017-01-26T13:51:29.285Z,3156
2017-01-26T13:52:29.983Z,3164
2017-01-26T13:53:30.685Z,3172
2017-01-26T13:54:31.360Z,3180
2017-01-26T13:55:32.212Z,3184
2017-01-26T13:56:32.872Z,3176
2017-01-26T13:57:33.601Z,3168
2017-01-26T13:58:34.277Z,3152
2017-01-26T13:59:34.977Z,3140
2017-01-26T14:00:35.646Z,3136
2017-01-26T14:01:36.344Z,3124
2017-01-26T14:02:37.064Z,3124
2017-01-26T14:03:37.728Z,3140
2017-01-26T14:04:38.456Z,3156
2017-01-26T14:05:39.142Z,3164
2017-01-26T14:06:39.834Z,3172
2017-01-26T14:07:40.528Z,3176
2017-01-26T14:08:41.215Z,3180
2017-01-26T14:09:41.897Z,3180
2017-01-26T14:10:42.614Z,3184
2017-01-26T14:11:43.314Z,3180
2017-01-26T14:12:43.998Z,3168